createdAt,value
2023-04-18T00:01:33.904Z,5.60
2023-04-18T00:04:03.161Z,5.05
2023-04-18T00:06:31.418Z,5.03
2023-04-18T00:08:58.779Z,4.70
2023-04-18T00:11:26.004Z,5.10
2023-04-18T00:13:53.296Z,5.15
2023-04-18T00:16:21.065Z,4.65
2023-04-18T00:18:48.430Z,4.38
2023-04-18T00:21:17.022Z,4.07
2023-04-18T00:23:46.123Z,4.90
2023-04-18T00:26:13.649Z,5.05
2023-04-18T00:28:41.442Z,4.38
2023-04-18T00:31:08.779Z,5.28
2023-04-18T00:33:36.092Z,4.95
2023-04-18T00:36:03.675Z,4.63
2023-04-18T00:38:30.951Z,4.88
2023-04-18T00:40:58.242Z,4.53
2023-04-18T00:43:25.519Z,4.13
2023-04-18T00:45:53.505Z,5.10
2023-04-18T00:48:21.240Z,4.45
2023-04-18T00:50:48.594Z,4.40
2023-04-18T00:53:16.193Z,5.25
2023-04-18T00:55:44.369Z,4.60
2023-04-18T00:58:12.608Z,4.35
2023-04-18T01:00:39.972Z,4.70
2023-04-18T01:03:08.798Z,4.00
2023-04-18T01:05:36.491Z,4.38
2023-04-18T01:08:04.794Z,4.07
2023-04-18T01:10:36.820Z,4.35
2023-04-18T01:13:11.967Z,3.90
2023-04-18T01:15:43.934Z,4.25
2023-04-18T01:18:13.347Z,4.22
2023-04-18T01:20:43.950Z,3.70
2023-04-18T01:23:11.291Z,4.20
2023-04-18T01:25:39.400Z,3.90
2023-04-18T01:28:06.966Z,3.90
2023-04-18T01:30:34.864Z,3.92
2023-04-18T01:33:03.622Z,3.53
2023-04-18T01:35:31.775Z,3.10
2023-04-18T01:37:59.762Z,3.65
2023-04-18T01:40:28.323Z,3.22
2023-04-18T01:42:55.706Z,3.40
2023-04-18T01:45:23.203Z,3.38
2023-04-18T01:47:50.604Z,3.72
2023-04-18T01:50:17.912Z,3.10
2023-04-18T01:52:45.231Z,3.45
2023-04-18T01:55:12.729Z,3.40
2023-04-18T01:57:40.359Z,3.60
2023-04-18T02:00:08.369Z,3.15
2023-04-18T02:02:44.513Z,3.30
2023-04-18T02:05:11.889Z,3.60
2023-04-18T02:07:41.139Z,2.92
2023-04-18T02:10:09.608Z,3.65
2023-04-18T02:12:36.863Z,3.40
2023-04-18T02:15:05.391Z,3.30
2023-04-18T02:17:36.505Z,2.95
2023-04-18T02:20:04.302Z,3.20
2023-04-18T02:22:31.588Z,3.38
2023-04-18T02:25:01.063Z,2.72
2023-04-18T02:27:28.402Z,3.05
2023-04-18T02:29:57.848Z,3.35
2023-04-18T02:32:25.267Z,3.60
2023-04-18T02:34:52.612Z,3.03
2023-04-18T02:37:19.888Z,3.05
2023-04-18T02:39:47.202Z,3.28
2023-04-18T02:42:14.733Z,3.35
2023-04-18T02:44:42.043Z,3.17
2023-04-18T02:47:10.259Z,3.50
2023-04-18T02:49:40.414Z,3.15
2023-04-18T02:52:07.749Z,3.70
2023-04-18T02:54:35.092Z,3.70
2023-04-18T02:57:10.621Z,3.25
2023-04-18T03:00:16.975Z,3.30
2023-04-18T03:03:05.712Z,3.25
2023-04-18T03:05:42.990Z,3.70
2023-04-18T03:08:10.582Z,3.58
2023-04-18T03:10:39.372Z,3.05
2023-04-18T03:13:06.949Z,4.18
2023-04-18T03:15:34.426Z,3.40
2023-04-18T03:18:02.029Z,3.97
2023-04-18T03:20:33.219Z,4.00
2023-04-18T03:23:00.994Z,4.28
2023-04-18T03:25:30.687Z,3.78
2023-04-18T03:27:58.497Z,4.20
2023-04-18T03:30:26.868Z,3.80
2023-04-18T03:32:56.382Z,4.72
2023-04-18T03:35:23.919Z,4.78
2023-04-18T03:37:51.601Z,3.90
2023-04-18T03:40:24.582Z,4.28
2023-04-18T03:42:55.007Z,4.43
2023-04-18T03:45:22.273Z,4.28
2023-04-18T03:47:50.224Z,4.35
2023-04-18T03:50:18.302Z,4.53
2023-04-18T03:52:47.452Z,4.20
2023-04-18T03:55:16.797Z,4.95
2023-04-18T03:57:44.029Z,5.03
2023-04-18T04:00:17.389Z,4.85
2023-04-18T04:02:52.516Z,5.10
2023-04-18T04:05:21.271Z,5.60
2023-04-18T04:07:50.077Z,5.20
2023-04-18T04:10:18.358Z,5.25
2023-04-18T04:12:46.689Z,4.93
2023-04-18T04:15:14.061Z,4.68
2023-04-18T04:17:47.827Z,4.95
2023-04-18T04:20:22.972Z,4.53
2023-04-18T04:22:54.120Z,4.85
2023-04-18T04:25:25.209Z,5.13
2023-04-18T04:27:55.110Z,4.97
2023-04-18T04:30:24.042Z,4.68
2023-04-18T04:32:52.134Z,4.88
2023-04-18T04:35:19.792Z,4.72
2023-04-18T04:37:47.326Z,5.28
2023-04-18T04:40:24.941Z,5.28
2023-04-18T04:43:03.047Z,4.85
2023-04-18T04:45:36.470Z,5.32
2023-04-18T04:48:03.920Z,4.30
2023-04-18T04:50:34.038Z,5.15
2023-04-18T04:53:01.273Z,5.60
2023-04-18T04:55:28.559Z,5.50
2023-04-18T04:57:56.193Z,5.20
2023-04-18T05:00:43.731Z,5.00
2023-04-18T05:03:11.733Z,5.53
2023-04-18T05:05:39.207Z,6.55
2023-04-18T05:08:06.991Z,6.57
2023-04-18T05:10:37.288Z,6.68
2023-04-18T05:13:04.994Z,5.55
2023-04-18T05:15:32.867Z,5.90
2023-04-18T05:18:00.258Z,5.40
2023-04-18T05:20:27.616Z,5.78
2023-04-18T05:22:54.944Z,6.28
2023-04-18T05:25:22.260Z,5.47
2023-04-18T05:27:50.248Z,6.00
2023-04-18T05:30:17.884Z,5.28
2023-04-18T05:32:45.228Z,5.20
2023-04-18T05:35:12.562Z,5.30
2023-04-18T05:37:39.935Z,6.07
2023-04-18T05:40:09.469Z,6.18
2023-04-18T05:42:36.755Z,5.85
2023-04-18T05:45:04.354Z,5.45
2023-04-18T05:47:33.711Z,5.63
2023-04-18T05:50:01.093Z,5.82
2023-04-18T05:52:28.498Z,5.35
2023-04-18T05:54:55.801Z,5.18
2023-04-18T05:57:23.166Z,4.97
2023-04-18T05:59:50.388Z,4.78
2023-04-18T06:02:17.717Z,4.85
2023-04-18T06:04:45.424Z,4.47
2023-04-18T06:07:13.058Z,4.75
2023-04-18T06:09:40.579Z,5.00
2023-04-18T06:12:07.878Z,5.53
2023-04-18T06:14:35.151Z,5.10
2023-04-18T06:17:02.584Z,5.20
2023-04-18T06:19:29.855Z,4.88
2023-04-18T06:21:57.154Z,4.88
2023-04-18T06:24:24.492Z,5.07
2023-04-18T06:26:52.110Z,4.57
2023-04-18T06:29:19.470Z,4.72
2023-04-18T06:31:48.501Z,4.68
2023-04-18T06:34:16.697Z,4.63
2023-04-18T06:36:43.962Z,4.47
2023-04-18T06:39:11.405Z,5.22
2023-04-18T06:41:38.617Z,4.68
2023-04-18T06:44:06.800Z,4.97
2023-04-18T06:46:34.135Z,5.35
2023-04-18T06:49:02.823Z,4.80
2023-04-18T06:51:30.148Z,4.68
2023-04-18T06:53:57.458Z,4.75
2023-04-18T06:56:24.797Z,4.95
2023-04-18T06:58:53.113Z,4.70
2023-04-18T07:01:21.049Z,5.10
2023-04-18T07:03:48.389Z,4.95
2023-04-18T07:06:16.260Z,4.32
2023-04-18T07:08:43.601Z,5.10
2023-04-18T07:11:13.379Z,5.28
2023-04-18T07:13:40.597Z,4.72
2023-04-18T07:16:09.616Z,5.28
2023-04-18T07:18:38.446Z,4.82
2023-04-18T07:21:09.414Z,4.63
2023-04-18T07:23:37.130Z,4.47
2023-04-18T07:26:05.932Z,5.22
2023-04-18T07:28:33.660Z,5.50
2023-04-18T07:31:03.846Z,4.55
2023-04-18T07:33:33.941Z,4.50
2023-04-18T07:36:02.970Z,5.63
2023-04-18T07:38:30.419Z,5.07
2023-04-18T07:41:01.363Z,4.90
2023-04-18T07:43:28.690Z,4.90
2023-04-18T07:45:56.315Z,5.03
2023-04-18T07:48:25.261Z,5.40
2023-04-18T07:50:52.898Z,5.18
2023-04-18T07:53:20.577Z,4.97
2023-04-18T07:55:47.970Z,4.82
2023-04-18T07:58:15.517Z,5.20
2023-04-18T08:00:44.755Z,5.10
2023-04-18T08:03:13.257Z,5.50
2023-04-18T08:05:43.649Z,5.40
2023-04-18T08:08:12.365Z,6.03
2023-04-18T08:10:39.746Z,4.78
2023-04-18T08:13:08.336Z,5.00
2023-04-18T08:15:35.813Z,5.00
2023-04-18T08:18:03.192Z,6.18
2023-04-18T08:20:30.678Z,5.95
2023-04-18T08:23:07.679Z,5.60
2023-04-18T08:25:37.100Z,5.75
2023-04-18T08:28:04.634Z,5.97
2023-04-18T08:30:31.952Z,5.40
2023-04-18T08:33:00.729Z,5.45
2023-04-18T08:35:28.460Z,5.97
2023-04-18T08:37:55.923Z,5.97
2023-04-18T08:40:23.270Z,5.90
2023-04-18T08:42:53.910Z,5.85
2023-04-18T08:45:21.402Z,5.55
2023-04-18T08:47:48.790Z,5.95
2023-04-18T08:50:17.501Z,5.32
2023-04-18T08:52:50.745Z,5.47
2023-04-18T08:55:19.232Z,5.38
2023-04-18T08:57:47.605Z,5.50
2023-04-18T09:00:17.764Z,5.00
2023-04-18T09:02:47.228Z,5.18
2023-04-18T09:05:17.747Z,5.50
2023-04-18T09:07:45.697Z,5.13
2023-04-18T09:10:13.998Z,5.10
2023-04-18T09:12:50.658Z,4.72
2023-04-18T09:15:23.828Z,4.97
2023-04-18T09:17:54.123Z,4.85
2023-04-18T09:20:44.749Z,4.32
2023-04-18T09:23:16.652Z,4.90
2023-04-18T09:25:48.783Z,4.55
2023-04-18T09:28:33.597Z,4.90
2023-04-18T09:31:11.977Z,4.03
2023-04-18T09:33:44.880Z,3.58
2023-04-18T09:36:21.672Z,3.17
2023-04-18T09:38:50.409Z,3.53
2023-04-18T09:41:20.845Z,3.28
2023-04-18T09:43:49.105Z,4.10
2023-04-18T09:46:17.915Z,3.72
2023-04-18T09:48:45.680Z,3.90
2023-04-18T09:51:16.779Z,3.97
2023-04-18T09:53:47.547Z,3.85
2023-04-18T09:56:29.835Z,4.00
2023-04-18T09:59:03.380Z,3.67
2023-04-18T10:01:31.179Z,4.00
2023-04-18T10:04:03.527Z,3.63
2023-04-18T10:06:39.770Z,3.78
2023-04-18T10:09:09.574Z,3.80
2023-04-18T10:11:37.279Z,3.92
2023-04-18T10:14:10.037Z,4.18
2023-04-18T10:16:38.929Z,3.63
2023-04-18T10:19:29.754Z,3.70
2023-04-18T10:21:58.852Z,3.08
2023-04-18T10:24:53.318Z,3.40
2023-04-18T10:27:49.026Z,4.03
2023-04-18T10:30:17.124Z,3.47
2023-04-18T10:32:46.939Z,3.38
2023-04-18T10:35:21.162Z,3.75
2023-04-18T10:37:52.140Z,3.08
2023-04-18T10:40:34.138Z,2.90
2023-04-18T10:43:01.883Z,2.88
2023-04-18T10:45:31.475Z,3.03
2023-04-18T10:48:20.764Z,3.47
2023-04-18T10:51:12.559Z,3.00
2023-04-18T10:53:42.109Z,2.92
2023-04-18T10:56:12.954Z,3.15
2023-04-18T10:58:43.059Z,3.03
2023-04-18T11:01:13.927Z,3.17
2023-04-18T11:03:41.464Z,2.90
2023-04-18T11:06:08.872Z,2.90
2023-04-18T11:08:36.485Z,3.65
2023-04-18T11:11:07.152Z,2.90
2023-04-18T11:13:34.453Z,2.78
2023-04-18T11:16:01.809Z,2.92
2023-04-18T11:18:41.213Z,2.80
2023-04-18T11:21:08.541Z,2.65
2023-04-18T11:23:35.886Z,2.85
2023-04-18T11:26:03.416Z,2.50
2023-04-18T11:28:30.808Z,5.70
2023-04-18T11:31:03.058Z,6.95
2023-04-18T11:33:30.575Z,5.88
2023-04-18T11:36:01.724Z,7.45
2023-04-18T11:38:34.043Z,7.40
2023-04-18T11:41:03.497Z,6.80
2023-04-18T11:43:30.797Z,7.60
2023-04-18T11:45:59.419Z,6.75
2023-04-18T11:48:37.243Z,7.05
2023-04-18T11:51:06.899Z,6.47
2023-04-18T11:53:38.913Z,7.35
2023-04-18T11:56:06.760Z,6.72
2023-04-18T11:58:35.148Z,7.30
2023-04-18T12:01:23.484Z,7.70
2023-04-18T12:04:07.017Z,6.75
2023-04-18T12:07:01.055Z,7.38
2023-04-18T12:09:28.279Z,7.85
2023-04-18T12:12:00.977Z,7.53
2023-04-18T12:14:29.118Z,6.72
2023-04-18T12:16:56.830Z,7.32
2023-04-18T12:19:28.422Z,8.27
2023-04-18T12:22:03.349Z,8.37
2023-04-18T12:24:32.419Z,7.28
2023-04-18T12:27:00.303Z,7.53
2023-04-18T12:29:28.958Z,8.15
2023-04-18T12:31:56.850Z,7.90
2023-04-18T12:34:24.264Z,7.32
2023-04-18T12:36:52.441Z,7.43
2023-04-18T12:39:19.863Z,8.60
2023-04-18T12:41:49.633Z,8.35
2023-04-18T12:44:17.469Z,8.15
2023-04-18T12:46:44.829Z,7.47
2023-04-18T12:49:12.197Z,8.40
2023-04-18T12:51:40.705Z,7.80
2023-04-18T12:54:08.019Z,8.32
2023-04-18T12:56:35.657Z,6.57
2023-04-18T12:59:03.069Z,7.10
2023-04-18T13:01:30.415Z,7.45
2023-04-18T13:04:10.875Z,7.53
2023-04-18T13:06:39.710Z,7.00
2023-04-18T13:09:07.625Z,7.30
2023-04-18T13:11:34.880Z,6.90
2023-04-18T13:14:02.269Z,6.30
2023-04-18T13:16:29.670Z,6.18
2023-04-18T13:18:57.016Z,6.53
2023-04-18T13:21:26.104Z,7.15
2023-04-18T13:23:57.296Z,6.50
2023-04-18T13:26:24.713Z,7.38
2023-04-18T13:28:52.091Z,6.45
2023-04-18T13:31:19.342Z,6.78
2023-04-18T13:33:46.652Z,7.10
2023-04-18T13:36:13.928Z,7.47
2023-04-18T13:38:41.769Z,6.70
2023-04-18T13:41:12.919Z,7.28
2023-04-18T13:43:41.110Z,6.68
2023-04-18T13:46:08.398Z,6.30
2023-04-18T13:48:35.801Z,6.35
2023-04-18T13:51:03.423Z,6.03
2023-04-18T13:53:31.185Z,6.13
2023-04-18T13:55:59.253Z,6.80
2023-04-18T13:58:26.665Z,6.40
2023-04-18T14:00:54.157Z,6.65
2023-04-18T14:03:21.713Z,6.22
2023-04-18T14:05:49.157Z,6.25
2023-04-18T14:08:16.835Z,6.72
2023-04-18T14:10:44.112Z,5.88
2023-04-18T14:13:11.727Z,5.22
2023-04-18T14:15:39.214Z,5.30
2023-04-18T14:18:06.753Z,5.03
2023-04-18T14:20:36.810Z,5.43
2023-04-18T14:23:04.110Z,4.78
2023-04-18T14:25:31.368Z,4.22
2023-04-18T14:28:09.797Z,5.82
2023-04-18T14:30:38.546Z,7.38
2023-04-18T14:33:06.800Z,6.60
2023-04-18T14:35:34.093Z,7.45
2023-04-18T14:38:01.613Z,7.70
2023-04-18T14:40:30.338Z,7.65
2023-04-18T14:42:58.820Z,6.90
2023-04-18T14:45:27.449Z,6.70
2023-04-18T14:47:55.937Z,7.55
2023-04-18T14:50:23.344Z,7.90
2023-04-18T14:52:51.198Z,6.78
2023-04-18T14:55:20.281Z,7.32
2023-04-18T14:57:47.649Z,6.15
2023-04-18T15:00:15.661Z,6.60
2023-04-18T15:02:43.286Z,6.53
2023-04-18T15:05:12.678Z,6.38
2023-04-18T15:07:40.912Z,7.10
2023-04-18T15:10:08.783Z,5.95
2023-04-18T15:12:36.335Z,6.80
2023-04-18T15:15:03.755Z,5.60
2023-04-18T15:17:31.110Z,5.65
2023-04-18T15:20:01.516Z,5.97
2023-04-18T15:22:28.813Z,5.85
2023-04-18T15:24:56.119Z,5.25
2023-04-18T15:27:23.430Z,6.28
2023-04-18T15:29:50.705Z,5.97
2023-04-18T15:32:18.142Z,6.07
2023-04-18T15:34:45.391Z,5.35
2023-04-18T15:37:12.724Z,5.43
2023-04-18T15:39:40.087Z,5.75
2023-04-18T15:42:07.405Z,4.78
2023-04-18T15:44:34.726Z,4.82
2023-04-18T15:47:02.091Z,4.75
2023-04-18T15:49:29.399Z,5.35
2023-04-18T15:51:57.054Z,6.20
2023-04-18T15:54:24.331Z,5.90
2023-04-18T15:56:51.851Z,6.15
2023-04-18T15:59:19.091Z,5.22
2023-04-18T16:01:46.412Z,5.20
2023-04-18T16:04:14.204Z,5.03
2023-04-18T16:06:41.933Z,5.00
2023-04-18T16:09:10.052Z,5.28
2023-04-18T16:11:37.324Z,4.32
2023-04-18T16:14:04.682Z,4.95
2023-04-18T16:16:32.300Z,4.30
2023-04-18T16:18:59.865Z,4.18
2023-04-18T16:21:28.486Z,4.10
2023-04-18T16:23:55.814Z,3.97
2023-04-18T16:26:24.993Z,4.40
2023-04-18T16:28:52.363Z,4.50
2023-04-18T16:31:19.698Z,4.65
2023-04-18T16:33:47.131Z,4.72
2023-04-18T16:36:14.563Z,4.85
2023-04-18T16:38:41.905Z,4.82
2023-04-18T16:41:09.249Z,5.15
2023-04-18T16:43:38.012Z,4.95
2023-04-18T16:46:05.746Z,5.53
2023-04-18T16:48:33.587Z,4.97
2023-04-18T16:51:00.878Z,4.72
2023-04-18T16:53:28.313Z,4.82
2023-04-18T16:55:55.945Z,4.85
2023-04-18T16:58:23.790Z,4.60
2023-04-18T17:00:51.177Z,3.92
2023-04-18T17:03:18.593Z,4.60
2023-04-18T17:05:46.668Z,4.07
2023-04-18T17:08:14.020Z,4.40
2023-04-18T17:10:41.498Z,4.40
2023-04-18T17:13:08.716Z,3.80
2023-04-18T17:15:36.687Z,4.13
2023-04-18T17:18:04.073Z,4.22
2023-04-18T17:20:31.420Z,4.20
2023-04-18T17:22:58.726Z,4.20
2023-04-18T17:25:26.099Z,3.97
2023-04-18T17:27:53.374Z,4.00
2023-04-18T17:30:20.801Z,4.13
2023-04-18T17:32:48.121Z,4.53
2023-04-18T17:35:15.404Z,4.05
2023-04-18T17:37:42.958Z,3.65
2023-04-18T17:40:11.712Z,3.72
2023-04-18T17:42:39.170Z,3.90
2023-04-18T17:45:10.623Z,3.60
2023-04-18T17:47:38.124Z,3.83
2023-04-18T17:50:06.129Z,4.15
2023-04-18T17:52:33.528Z,4.00
2023-04-18T17:55:04.200Z,3.40
2023-04-18T17:57:33.760Z,3.45
2023-04-18T18:00:01.765Z,3.63
2023-04-18T18:02:40.911Z,4.15
2023-04-18T18:05:13.420Z,3.15
2023-04-18T18:07:43.741Z,3.38
2023-04-18T18:10:12.272Z,3.47
2023-04-18T18:12:40.117Z,3.70
2023-04-18T18:15:08.747Z,3.58
2023-04-18T18:17:36.128Z,3.00
2023-04-18T18:20:07.487Z,3.30
2023-04-18T18:22:34.797Z,3.30
2023-04-18T18:25:02.287Z,3.30
2023-04-18T18:27:29.599Z,3.33
2023-04-18T18:29:56.929Z,3.45
2023-04-18T18:32:24.260Z,3.50
2023-04-18T18:34:51.489Z,3.17
2023-04-18T18:37:18.844Z,3.15
2023-04-18T18:39:46.106Z,2.95
2023-04-18T18:42:13.367Z,2.70
2023-04-18T18:44:40.563Z,2.75
2023-04-18T18:47:08.038Z,2.97
2023-04-18T18:49:36.087Z,2.67
2023-04-18T18:52:05.988Z,2.85
2023-04-18T18:54:33.292Z,2.90
2023-04-18T18:57:03.006Z,2.85
2023-04-18T18:59:30.687Z,2.75
2023-04-18T19:01:58.187Z,3.00
2023-04-18T19:04:25.745Z,2.97
2023-04-18T19:06:53.734Z,3.20
2023-04-18T19:09:21.398Z,2.95
2023-04-18T19:11:49.169Z,2.65
2023-04-18T19:14:16.717Z,2.70
2023-04-18T19:16:44.142Z,3.17
2023-04-18T19:19:12.061Z,2.90
2023-04-18T19:21:42.901Z,2.83
2023-04-18T19:24:12.002Z,3.10
2023-04-18T19:26:39.525Z,2.80
2023-04-18T19:29:08.030Z,3.20
2023-04-18T19:31:35.644Z,3.00
2023-04-18T19:34:03.101Z,3.25
2023-04-18T19:36:30.983Z,2.90
2023-04-18T19:38:58.907Z,2.88
2023-04-18T19:41:26.363Z,3.00
2023-04-18T19:43:53.858Z,2.80
2023-04-18T19:46:21.310Z,3.15
2023-04-18T19:48:48.771Z,3.05
2023-04-18T19:51:16.086Z,3.13
2023-04-18T19:53:43.324Z,2.85
2023-04-18T19:56:12.627Z,3.35
2023-04-18T19:58:45.356Z,3.10
2023-04-18T20:01:21.205Z,3.13
2023-04-18T20:03:48.786Z,3.38
2023-04-18T20:06:17.173Z,2.67
2023-04-18T20:08:47.397Z,3.78
2023-04-18T20:11:14.743Z,2.60
2023-04-18T20:13:42.071Z,2.65
2023-04-18T20:16:09.752Z,3.42
2023-04-18T20:18:39.825Z,2.78
2023-04-18T20:21:08.423Z,2.85
2023-04-18T20:23:36.473Z,2.97
2023-04-18T20:26:04.645Z,2.65
2023-04-18T20:28:32.286Z,3.33
2023-04-18T20:30:59.663Z,3.10
2023-04-18T20:33:27.052Z,3.00
2023-04-18T20:35:54.886Z,3.05
2023-04-18T20:38:25.776Z,2.88
2023-04-18T20:40:54.356Z,2.95
2023-04-18T20:43:21.673Z,2.90
2023-04-18T20:45:52.344Z,2.80
2023-04-18T20:48:20.596Z,2.92
2023-04-18T20:50:51.675Z,3.25
2023-04-18T20:53:27.224Z,2.83
2023-04-18T20:55:54.909Z,2.95
2023-04-18T20:58:22.257Z,2.80
2023-04-18T21:00:49.668Z,2.97
2023-04-18T21:03:17.398Z,2.40
2023-04-18T21:05:45.255Z,2.97
2023-04-18T21:08:12.715Z,2.90
2023-04-18T21:10:40.079Z,2.63
2023-04-18T21:13:07.379Z,2.63
2023-04-18T21:15:35.979Z,2.50
2023-04-18T21:18:03.416Z,2.83
2023-04-18T21:20:30.770Z,2.72
2023-04-18T21:22:58.095Z,2.65
2023-04-18T21:25:25.450Z,2.97
2023-04-18T21:27:52.874Z,2.33
2023-04-18T21:30:20.535Z,2.20
2023-04-18T21:32:49.303Z,2.33
2023-04-18T21:35:19.727Z,2.42
2023-04-18T21:37:49.123Z,2.75
2023-04-18T21:40:16.454Z,2.08
2023-04-18T21:42:44.756Z,2.28
2023-04-18T21:45:12.267Z,2.20
2023-04-18T21:47:39.703Z,2.60
2023-04-18T21:50:07.805Z,2.33
2023-04-18T21:52:35.047Z,2.33
2023-04-18T21:55:02.628Z,2.58
2023-04-18T21:57:30.016Z,2.40
2023-04-18T22:00:00.157Z,2.45
2023-04-18T22:02:27.795Z,2.33
2023-04-18T22:04:55.177Z,2.10
2023-04-18T22:07:24.299Z,2.28
2023-04-18T22:09:51.542Z,2.35
2023-04-18T22:12:18.800Z,2.10
2023-04-18T22:14:48.583Z,2.20
2023-04-18T22:17:16.063Z,2.20
2023-04-18T22:19:44.565Z,2.40
2023-04-18T22:22:12.116Z,2.10
2023-04-18T22:24:39.393Z,2.38
2023-04-18T22:27:06.969Z,2.33
2023-04-18T22:29:34.283Z,2.45
2023-04-18T22:32:01.540Z,2.08
2023-04-18T22:34:28.860Z,2.33
2023-04-18T22:36:56.094Z,2.53
2023-04-18T22:39:26.009Z,2.72
2023-04-18T22:41:53.227Z,2.30
2023-04-18T22:44:20.576Z,2.70
2023-04-18T22:46:48.361Z,2.22
2023-04-18T22:49:15.813Z,2.67
2023-04-18T22:51:44.070Z,2.78
2023-04-18T22:54:11.369Z,2.38
2023-04-18T22:56:38.641Z,2.50
2023-04-18T22:59:06.000Z,2.40
2023-04-18T23:01:33.301Z,2.65
2023-04-18T23:04:00.965Z,2.42
2023-04-18T23:06:30.177Z,3.08
2023-04-18T23:08:57.469Z,2.70
2023-04-18T23:11:25.137Z,2.88
2023-04-18T23:13:52.358Z,3.60
2023-04-18T23:16:19.698Z,3.10
2023-04-18T23:18:47.101Z,3.15
2023-04-18T23:21:14.537Z,2.80
2023-04-18T23:23:41.730Z,2.95
2023-04-18T23:26:15.830Z,3.00
2023-04-18T23:28:43.163Z,3.30
2023-04-18T23:31:10.733Z,3.17
2023-04-18T23:33:38.113Z,2.65
2023-04-18T23:36:06.631Z,3.33
2023-04-18T23:38:34.172Z,3.00
2023-04-18T23:41:01.421Z,3.28
2023-04-18T23:43:28.857Z,3.30
2023-04-18T23:45:56.094Z,3.22
2023-04-18T23:48:23.452Z,3.50
2023-04-18T23:50:52.686Z,3.28
2023-04-18T23:53:20.964Z,2.90
2023-04-18T23:55:50.729Z,2.88
2023-04-18T23:58:18.440Z,2.97
